Bankersmith, Texas
Current Conditions -  °F | °C
As of 6:55 PM on Saturday 22 Nov 2014 (Local Time) from KT82 Reporting Station
Scattered Clouds Scattered Clouds  
Wind Chill: 63°   Ceiling: Unl
Heat Index: 63°   Visibility: 10mi
Dew Point: 61°   Wind: 3mph
Humidity: 92%   Direction: 240°WSW
Pressure: 29.79"   Gusts: NA
Location:  30.3069°N, 98.8978°W
Report Text: KT82 230055Z AUTO 24003KT 10SM SCT065 17/16 A2979 RMK AO2 LTG DSNT ALQS T01720159
Loading
Personal Weather Stations






























Interactive Weather Map New forecast layout! Learn more

10-Day Weather Forecast

Advertisements
Track Severe Weather on mobile